sensor_id;sensor_type;location;lat;lon;timestamp;P1;durP1;ratioP1;P2;durP2;ratioP2
73428;SDS011;61643;49.564;17.412;2023-06-14T00:02:07;3.28;;;1.55;;
73428;SDS011;61643;49.564;17.412;2023-06-14T00:04:34;2.25;;;1.20;;
73428;SDS011;61643;49.564;17.412;2023-06-14T00:07:01;2.42;;;1.63;;
73428;SDS011;61643;49.564;17.412;2023-06-14T00:09:27;2.28;;;1.67;;
73428;SDS011;61643;49.564;17.412;2023-06-14T00:11:53;2.45;;;1.52;;
73428;SDS011;61643;49.564;17.412;2023-06-14T00:14:19;1.40;;;1.23;;
73428;SDS011;61643;49.564;17.412;2023-06-14T00:16:45;2.33;;;1.55;;
73428;SDS011;61643;49.564;17.412;2023-06-14T00:19:11;2.10;;;1.40;;
73428;SDS011;61643;49.564;17.412;2023-06-14T00:21:37;3.65;;;1.60;;
73428;SDS011;61643;49.564;17.412;2023-06-14T00:24:03;2.97;;;1.42;;
73428;SDS011;61643;49.564;17.412;2023-06-14T00:26:30;3.42;;;1.65;;
73428;SDS011;61643;49.564;17.412;2023-06-14T00:28:56;2.00;;;1.42;;
73428;SDS011;61643;49.564;17.412;2023-06-14T00:31:22;1.73;;;1.60;;
73428;SDS011;61643;49.564;17.412;2023-06-14T00:33:48;1.98;;;1.60;;
73428;SDS011;61643;49.564;17.412;2023-06-14T00:36:14;1.95;;;1.60;;
73428;SDS011;61643;49.564;17.412;2023-06-14T00:38:40;3.38;;;1.50;;
73428;SDS011;61643;49.564;17.412;2023-06-14T00:41:06;1.48;;;1.35;;
73428;SDS011;61643;49.564;17.412;2023-06-14T00:43:32;2.28;;;1.60;;
73428;SDS011;61643;49.564;17.412;2023-06-14T00:46:00;2.28;;;1.77;;
73428;SDS011;61643;49.564;17.412;2023-06-14T00:48:26;2.20;;;1.60;;
73428;SDS011;61643;49.564;17.412;2023-06-14T00:50:53;2.78;;;1.40;;
73428;SDS011;61643;49.564;17.412;2023-06-14T00:53:20;4.03;;;1.60;;
73428;SDS011;61643;49.564;17.412;2023-06-14T00:55:48;1.73;;;1.45;;
73428;SDS011;61643;49.564;17.412;2023-06-14T00:58:14;1.80;;;1.63;;
73428;SDS011;61643;49.564;17.412;2023-06-14T01:00:40;1.83;;;1.33;;
73428;SDS011;61643;49.564;17.412;2023-06-14T01:03:06;1.90;;;1.40;;
73428;SDS011;61643;49.564;17.412;2023-06-14T01:05:33;2.83;;;1.70;;
73428;SDS011;61643;49.564;17.412;2023-06-14T01:13:05;2.17;;;1.70;;
73428;SDS011;61643;49.564;17.412;2023-06-14T01:15:35;2.15;;;1.60;;
73428;SDS011;61643;49.564;17.412;2023-06-14T01:18:04;3.83;;;1.67;;
73428;SDS011;61643;49.564;17.412;2023-06-14T01:20:31;3.47;;;1.48;;
73428;SDS011;61643;49.564;17.412;2023-06-14T01:22:58;2.78;;;1.88;;
73428;SDS011;61643;49.564;17.412;2023-06-14T01:25:25;2.83;;;1.63;;
73428;SDS011;61643;49.564;17.412;2023-06-14T01:30:28;2.85;;;1.80;;
73428;SDS011;61643;49.564;17.412;2023-06-14T01:32:56;2.70;;;1.35;;
73428;SDS011;61643;49.564;17.412;2023-06-14T01:35:23;3.25;;;1.63;;
73428;SDS011;61643;49.564;17.412;2023-06-14T01:37:50;3.60;;;1.80;;
73428;SDS011;61643;49.564;17.412;2023-06-14T01:40:17;2.88;;;1.85;;
73428;SDS011;61643;49.564;17.412;2023-06-14T01:42:46;2.70;;;1.67;;
73428;SDS011;61643;49.564;17.412;2023-06-14T01:45:14;2.40;;;1.70;;
73428;SDS011;61643;49.564;17.412;2023-06-14T01:47:42;2.63;;;1.70;;
73428;SDS011;61643;49.564;17.412;2023-06-14T01:50:10;2.10;;;1.33;;
73428;SDS011;61643;49.564;17.412;2023-06-14T01:52:37;2.33;;;1.88;;
73428;SDS011;61643;49.564;17.412;2023-06-14T01:55:06;3.40;;;1.65;;
73428;SDS011;61643;49.564;17.412;2023-06-14T01:57:33;2.55;;;1.80;;
73428;SDS011;61643;49.564;17.412;2023-06-14T01:59:59;2.45;;;1.83;;
73428;SDS011;61643;49.564;17.412;2023-06-14T02:02:25;2.03;;;1.65;;
73428;SDS011;61643;49.564;17.412;2023-06-14T02:04:51;2.80;;;1.88;;
73428;SDS011;61643;49.564;17.412;2023-06-14T02:07:17;3.33;;;1.95;;
73428;SDS011;61643;49.564;17.412;2023-06-14T02:09:43;2.58;;;1.70;;
73428;SDS011;61643;49.564;17.412;2023-06-14T02:12:09;3.17;;;1.80;;
73428;SDS011;61643;49.564;17.412;2023-06-14T02:14:36;2.75;;;1.45;;
73428;SDS011;61643;49.564;17.412;2023-06-14T02:17:03;3.05;;;1.75;;
73428;SDS011;61643;49.564;17.412;2023-06-14T02:19:30;1.92;;;1.60;;
73428;SDS011;61643;49.564;17.412;2023-06-14T02:21:56;2.55;;;2.08;;
73428;SDS011;61643;49.564;17.412;2023-06-14T02:24:22;2.72;;;2.05;;
73428;SDS011;61643;49.564;17.412;2023-06-14T02:26:49;4.07;;;2.22;;
73428;SDS011;61643;49.564;17.412;2023-06-14T02:29:16;2.10;;;1.75;;
73428;SDS011;61643;49.564;17.412;2023-06-14T02:31:42;3.17;;;1.75;;
73428;SDS011;61643;49.564;17.412;2023-06-14T02:34:08;4.57;;;1.85;;
73428;SDS011;61643;49.564;17.412;2023-06-14T02:36:34;4.28;;;2.55;;
73428;SDS011;61643;49.564;17.412;2023-06-14T02:39:07;2.88;;;2.15;;
73428;SDS011;61643;49.564;17.412;2023-06-14T02:41:34;4.55;;;2.10;;
73428;SDS011;61643;49.564;17.412;2023-06-14T02:44:00;4.45;;;2.50;;
73428;SDS011;61643;49.564;17.412;2023-06-14T02:46:26;2.75;;;2.10;;
73428;SDS011;61643;49.564;17.412;2023-06-14T02:48:52;2.55;;;1.73;;
73428;SDS011;61643;49.564;17.412;2023-06-14T02:51:18;4.70;;;2.20;;
73428;SDS011;61643;49.564;17.412;2023-06-14T02:53:44;2.22;;;2.03;;
73428;SDS011;61643;49.564;17.412;2023-06-14T02:56:10;3.40;;;2.33;;
73428;SDS011;61643;49.564;17.412;2023-06-14T02:58:37;3.38;;;2.25;;
73428;SDS011;61643;49.564;17.412;2023-06-14T03:01:05;3.97;;;2.42;;
73428;SDS011;61643;49.564;17.412;2023-06-14T03:03:33;3.28;;;2.10;;
73428;SDS011;61643;49.564;17.412;2023-06-14T03:05:59;4.00;;;2.25;;
73428;SDS011;61643;49.564;17.412;2023-06-14T03:08:29;3.65;;;2.40;;
73428;SDS011;61643;49.564;17.412;2023-06-14T03:10:57;4.85;;;2.55;;
73428;SDS011;61643;49.564;17.412;2023-06-14T03:13:23;4.03;;;2.55;;
73428;SDS011;61643;49.564;17.412;2023-06-14T03:15:49;4.82;;;2.85;;
73428;SDS011;61643;49.564;17.412;2023-06-14T03:18:17;4.43;;;2.90;;
73428;SDS011;61643;49.564;17.412;2023-06-14T03:20:44;3.88;;;2.75;;
73428;SDS011;61643;49.564;17.412;2023-06-14T03:23:11;5.13;;;3.55;;
73428;SDS011;61643;49.564;17.412;2023-06-14T03:25:37;4.88;;;3.03;;
73428;SDS011;61643;49.564;17.412;2023-06-14T03:28:04;4.57;;;2.72;;
73428;SDS011;61643;49.564;17.412;2023-06-14T03:30:31;5.20;;;3.38;;
73428;SDS011;61643;49.564;17.412;2023-06-14T03:32:57;5.07;;;3.08;;
73428;SDS011;61643;49.564;17.412;2023-06-14T03:35:26;5.90;;;3.60;;
73428;SDS011;61643;49.564;17.412;2023-06-14T03:37:53;5.25;;;3.15;;
73428;SDS011;61643;49.564;17.412;2023-06-14T03:40:20;5.82;;;3.35;;
73428;SDS011;61643;49.564;17.412;2023-06-14T03:42:47;7.57;;;3.85;;
73428;SDS011;61643;49.564;17.412;2023-06-14T03:45:13;5.13;;;3.05;;
73428;SDS011;61643;49.564;17.412;2023-06-14T03:47:38;4.63;;;3.00;;
73428;SDS011;61643;49.564;17.412;2023-06-14T03:50:05;5.95;;;3.47;;
73428;SDS011;61643;49.564;17.412;2023-06-14T03:52:31;4.43;;;2.58;;
73428;SDS011;61643;49.564;17.412;2023-06-14T03:54:58;4.75;;;3.00;;
73428;SDS011;61643;49.564;17.412;2023-06-14T03:57:25;3.95;;;2.72;;
73428;SDS011;61643;49.564;17.412;2023-06-14T03:59:51;4.32;;;3.00;;
73428;SDS011;61643;49.564;17.412;2023-06-14T04:02:17;4.68;;;2.70;;
73428;SDS011;61643;49.564;17.412;2023-06-14T04:04:44;3.97;;;2.85;;
73428;SDS011;61643;49.564;17.412;2023-06-14T04:07:11;4.78;;;2.85;;
73428;SDS011;61643;49.564;17.412;2023-06-14T04:09:39;4.72;;;2.88;;
73428;SDS011;61643;49.564;17.412;2023-06-14T04:14:32;7.88;;;3.95;;
73428;SDS011;61643;49.564;17.412;2023-06-14T04:16:58;8.20;;;4.45;;
73428;SDS011;61643;49.564;17.412;2023-06-14T04:19:24;7.07;;;4.13;;
73428;SDS011;61643;49.564;17.412;2023-06-14T04:21:50;9.35;;;4.80;;
73428;SDS011;61643;49.564;17.412;2023-06-14T04:24:16;8.30;;;4.32;;
73428;SDS011;61643;49.564;17.412;2023-06-14T04:26:43;6.78;;;4.68;;
73428;SDS011;61643;49.564;17.412;2023-06-14T04:29:13;5.88;;;3.60;;
73428;SDS011;61643;49.564;17.412;2023-06-14T04:31:44;6.35;;;3.75;;
73428;SDS011;61643;49.564;17.412;2023-06-14T04:34:11;5.80;;;3.40;;
73428;SDS011;61643;49.564;17.412;2023-06-14T04:36:44;6.72;;;3.22;;
73428;SDS011;61643;49.564;17.412;2023-06-14T04:39:20;6.00;;;3.38;;
73428;SDS011;61643;49.564;17.412;2023-06-14T04:41:46;5.53;;;3.25;;
73428;SDS011;61643;49.564;17.412;2023-06-14T04:44:13;5.32;;;3.40;;
73428;SDS011;61643;49.564;17.412;2023-06-14T04:46:39;6.30;;;3.35;;
73428;SDS011;61643;49.564;17.412;2023-06-14T04:49:12;4.63;;;3.25;;
73428;SDS011;61643;49.564;17.412;2023-06-14T04:51:44;5.25;;;2.90;;
73428;SDS011;61643;49.564;17.412;2023-06-14T04:54:11;5.45;;;3.17;;
73428;SDS011;61643;49.564;17.412;2023-06-14T04:56:40;4.32;;;2.90;;
73428;SDS011;61643;49.564;17.412;2023-06-14T04:59:11;3.92;;;2.72;;
73428;SDS011;61643;49.564;17.412;2023-06-14T05:01:38;5.40;;;2.88;;
73428;SDS011;61643;49.564;17.412;2023-06-14T05:04:04;4.55;;;2.95;;
73428;SDS011;61643;49.564;17.412;2023-06-14T05:06:30;4.95;;;3.15;;
73428;SDS011;61643;49.564;17.412;2023-06-14T05:08:56;4.75;;;3.00;;
73428;SDS011;61643;49.564;17.412;2023-06-14T05:11:23;4.40;;;3.25;;
73428;SDS011;61643;49.564;17.412;2023-06-14T05:13:52;4.25;;;3.05;;
73428;SDS011;61643;49.564;17.412;2023-06-14T05:16:18;4.85;;;3.10;;
73428;SDS011;61643;49.564;17.412;2023-06-14T05:18:45;4.90;;;3.20;;
73428;SDS011;61643;49.564;17.412;2023-06-14T05:21:13;4.30;;;3.20;;
73428;SDS011;61643;49.564;17.412;2023-06-14T05:23:41;5.30;;;3.20;;
73428;SDS011;61643;49.564;17.412;2023-06-14T05:26:07;5.05;;;3.20;;
73428;SDS011;61643;49.564;17.412;2023-06-14T05:28:36;4.43;;;2.92;;
73428;SDS011;61643;49.564;17.412;2023-06-14T05:31:02;4.43;;;3.00;;
73428;SDS011;61643;49.564;17.412;2023-06-14T05:33:28;5.82;;;3.65;;
73428;SDS011;61643;49.564;17.412;2023-06-14T05:35:54;7.18;;;3.97;;
73428;SDS011;61643;49.564;17.412;2023-06-14T05:38:21;5.75;;;3.22;;
73428;SDS011;61643;49.564;17.412;2023-06-14T05:40:47;6.28;;;3.58;;
73428;SDS011;61643;49.564;17.412;2023-06-14T05:43:13;5.00;;;3.13;;
73428;SDS011;61643;49.564;17.412;2023-06-14T05:45:39;6.10;;;3.35;;
73428;SDS011;61643;49.564;17.412;2023-06-14T05:48:05;5.55;;;3.60;;
73428;SDS011;61643;49.564;17.412;2023-06-14T05:50:31;5.35;;;3.60;;
73428;SDS011;61643;49.564;17.412;2023-06-14T05:52:57;4.88;;;3.35;;
73428;SDS011;61643;49.564;17.412;2023-06-14T05:55:23;4.57;;;2.80;;
73428;SDS011;61643;49.564;17.412;2023-06-14T05:57:49;4.93;;;3.00;;
73428;SDS011;61643;49.564;17.412;2023-06-14T06:00:15;4.88;;;2.80;;
73428;SDS011;61643;49.564;17.412;2023-06-14T06:02:42;4.53;;;2.85;;
73428;SDS011;61643;49.564;17.412;2023-06-14T06:05:13;4.07;;;2.95;;
73428;SDS011;61643;49.564;17.412;2023-06-14T06:07:39;4.18;;;3.25;;
73428;SDS011;61643;49.564;17.412;2023-06-14T06:10:10;6.25;;;3.70;;
73428;SDS011;61643;49.564;17.412;2023-06-14T06:12:37;6.03;;;3.90;;
73428;SDS011;61643;49.564;17.412;2023-06-14T06:15:03;5.72;;;3.75;;
73428;SDS011;61643;49.564;17.412;2023-06-14T06:17:29;8.13;;;5.00;;
73428;SDS011;61643;49.564;17.412;2023-06-14T06:19:55;7.55;;;5.60;;
73428;SDS011;61643;49.564;17.412;2023-06-14T06:22:21;9.82;;;5.65;;
73428;SDS011;61643;49.564;17.412;2023-06-14T06:24:47;12.05;;;7.40;;
73428;SDS011;61643;49.564;17.412;2023-06-14T06:27:13;10.27;;;6.13;;
73428;SDS011;61643;49.564;17.412;2023-06-14T06:29:41;12.00;;;6.28;;
73428;SDS011;61643;49.564;17.412;2023-06-14T06:32:09;12.80;;;7.45;;
73428;SDS011;61643;49.564;17.412;2023-06-14T06:34:35;13.60;;;7.45;;
73428;SDS011;61643;49.564;17.412;2023-06-14T06:37:01;13.95;;;8.45;;
73428;SDS011;61643;49.564;17.412;2023-06-14T06:39:27;11.95;;;7.15;;
73428;SDS011;61643;49.564;17.412;2023-06-14T06:41:53;14.15;;;8.10;;
73428;SDS011;61643;49.564;17.412;2023-06-14T06:44:19;13.23;;;7.75;;
73428;SDS011;61643;49.564;17.412;2023-06-14T06:46:45;14.27;;;7.72;;
73428;SDS011;61643;49.564;17.412;2023-06-14T06:49:11;13.60;;;7.53;;
73428;SDS011;61643;49.564;17.412;2023-06-14T06:51:42;12.90;;;7.45;;
73428;SDS011;61643;49.564;17.412;2023-06-14T06:54:10;12.25;;;7.10;;
73428;SDS011;61643;49.564;17.412;2023-06-14T06:56:36;12.70;;;7.07;;
73428;SDS011;61643;49.564;17.412;2023-06-14T06:59:02;10.93;;;7.32;;
73428;SDS011;61643;49.564;17.412;2023-06-14T07:01:28;11.10;;;6.28;;
73428;SDS011;61643;49.564;17.412;2023-06-14T07:03:54;11.88;;;6.50;;
73428;SDS011;61643;49.564;17.412;2023-06-14T07:06:21;11.18;;;7.10;;
73428;SDS011;61643;49.564;17.412;2023-06-14T07:08:47;10.55;;;6.18;;
73428;SDS011;61643;49.564;17.412;2023-06-14T07:11:16;7.65;;;4.97;;
73428;SDS011;61643;49.564;17.412;2023-06-14T07:13:42;9.32;;;5.50;;
73428;SDS011;61643;49.564;17.412;2023-06-14T07:16:08;9.55;;;4.97;;
73428;SDS011;61643;49.564;17.412;2023-06-14T07:18:34;8.85;;;5.82;;
73428;SDS011;61643;49.564;17.412;2023-06-14T07:21:00;9.20;;;5.30;;
73428;SDS011;61643;49.564;17.412;2023-06-14T07:23:26;8.82;;;5.22;;
73428;SDS011;61643;49.564;17.412;2023-06-14T07:25:52;8.73;;;5.18;;
73428;SDS011;61643;49.564;17.412;2023-06-14T07:28:18;7.97;;;5.10;;
73428;SDS011;61643;49.564;17.412;2023-06-14T07:30:44;8.13;;;5.18;;
73428;SDS011;61643;49.564;17.412;2023-06-14T07:33:10;9.45;;;6.10;;
73428;SDS011;61643;49.564;17.412;2023-06-14T07:35:37;8.13;;;4.95;;
73428;SDS011;61643;49.564;17.412;2023-06-14T07:38:03;9.02;;;5.70;;
73428;SDS011;61643;49.564;17.412;2023-06-14T07:40:29;9.27;;;5.63;;
73428;SDS011;61643;49.564;17.412;2023-06-14T07:42:55;7.22;;;4.97;;
73428;SDS011;61643;49.564;17.412;2023-06-14T07:45:21;9.10;;;5.35;;
73428;SDS011;61643;49.564;17.412;2023-06-14T07:47:47;8.40;;;5.43;;
73428;SDS011;61643;49.564;17.412;2023-06-14T07:50:13;7.53;;;4.85;;
73428;SDS011;61643;49.564;17.412;2023-06-14T07:52:39;8.40;;;4.95;;
73428;SDS011;61643;49.564;17.412;2023-06-14T07:55:05;10.30;;;6.13;;
73428;SDS011;61643;49.564;17.412;2023-06-14T07:57:32;10.40;;;5.47;;
73428;SDS011;61643;49.564;17.412;2023-06-14T07:59:57;7.50;;;4.82;;
73428;SDS011;61643;49.564;17.412;2023-06-14T08:02:24;9.45;;;5.35;;
73428;SDS011;61643;49.564;17.412;2023-06-14T08:04:49;7.68;;;5.28;;
73428;SDS011;61643;49.564;17.412;2023-06-14T08:07:15;8.57;;;5.32;;
73428;SDS011;61643;49.564;17.412;2023-06-14T08:09:41;7.57;;;5.40;;
73428;SDS011;61643;49.564;17.412;2023-06-14T08:12:07;9.82;;;5.68;;
73428;SDS011;61643;49.564;17.412;2023-06-14T08:14:35;7.90;;;5.78;;
73428;SDS011;61643;49.564;17.412;2023-06-14T08:17:01;9.07;;;5.38;;
73428;SDS011;61643;49.564;17.412;2023-06-14T08:19:27;8.52;;;5.07;;
73428;SDS011;61643;49.564;17.412;2023-06-14T08:21:53;7.25;;;5.20;;
73428;SDS011;61643;49.564;17.412;2023-06-14T08:24:21;7.45;;;5.40;;
73428;SDS011;61643;49.564;17.412;2023-06-14T08:26:50;7.18;;;4.35;;
73428;SDS011;61643;49.564;17.412;2023-06-14T08:29:16;6.28;;;4.45;;
73428;SDS011;61643;49.564;17.412;2023-06-14T08:31:42;9.55;;;4.93;;
73428;SDS011;61643;49.564;17.412;2023-06-14T08:34:08;6.32;;;4.50;;
73428;SDS011;61643;49.564;17.412;2023-06-14T08:36:37;6.90;;;4.60;;
73428;SDS011;61643;49.564;17.412;2023-06-14T08:39:03;6.53;;;4.30;;
73428;SDS011;61643;49.564;17.412;2023-06-14T08:41:29;7.55;;;4.60;;
73428;SDS011;61643;49.564;17.412;2023-06-14T08:43:56;6.38;;;4.45;;
73428;SDS011;61643;49.564;17.412;2023-06-14T08:46:22;7.13;;;4.57;;
73428;SDS011;61643;49.564;17.412;2023-06-14T08:48:53;7.30;;;4.60;;
73428;SDS011;61643;49.564;17.412;2023-06-14T08:51:22;7.90;;;4.95;;
73428;SDS011;61643;49.564;17.412;2023-06-14T08:53:53;8.50;;;4.45;;
73428;SDS011;61643;49.564;17.412;2023-06-14T08:56:25;5.47;;;3.53;;
73428;SDS011;61643;49.564;17.412;2023-06-14T08:58:53;6.88;;;3.95;;
73428;SDS011;61643;49.564;17.412;2023-06-14T09:01:19;5.82;;;3.45;;
73428;SDS011;61643;49.564;17.412;2023-06-14T09:03:47;4.88;;;3.28;;
73428;SDS011;61643;49.564;17.412;2023-06-14T09:06:14;5.63;;;3.33;;
73428;SDS011;61643;49.564;17.412;2023-06-14T09:08:47;4.55;;;3.50;;
73428;SDS011;61643;49.564;17.412;2023-06-14T09:11:15;6.88;;;3.95;;
73428;SDS011;61643;49.564;17.412;2023-06-14T09:13:44;6.50;;;3.80;;
73428;SDS011;61643;49.564;17.412;2023-06-14T09:16:11;5.63;;;3.35;;
73428;SDS011;61643;49.564;17.412;2023-06-14T09:18:42;5.47;;;3.67;;
73428;SDS011;61643;49.564;17.412;2023-06-14T09:21:10;5.70;;;4.15;;
73428;SDS011;61643;49.564;17.412;2023-06-14T09:23:37;6.03;;;3.70;;
73428;SDS011;61643;49.564;17.412;2023-06-14T09:26:14;6.90;;;4.03;;
73428;SDS011;61643;49.564;17.412;2023-06-14T09:28:42;5.85;;;3.90;;
73428;SDS011;61643;49.564;17.412;2023-06-14T09:31:16;5.32;;;3.53;;
73428;SDS011;61643;49.564;17.412;2023-06-14T09:33:44;6.30;;;3.80;;
73428;SDS011;61643;49.564;17.412;2023-06-14T09:36:17;4.78;;;3.15;;
73428;SDS011;61643;49.564;17.412;2023-06-14T09:41:20;6.55;;;3.83;;
73428;SDS011;61643;49.564;17.412;2023-06-14T09:43:46;5.15;;;3.50;;
73428;SDS011;61643;49.564;17.412;2023-06-14T09:46:13;6.25;;;3.85;;
73428;SDS011;61643;49.564;17.412;2023-06-14T09:48:39;5.18;;;3.83;;
73428;SDS011;61643;49.564;17.412;2023-06-14T09:51:09;8.50;;;3.72;;
73428;SDS011;61643;49.564;17.412;2023-06-14T09:53:39;5.53;;;3.88;;
73428;SDS011;61643;49.564;17.412;2023-06-14T09:56:06;7.07;;;3.72;;
73428;SDS011;61643;49.564;17.412;2023-06-14T09:58:32;5.32;;;3.50;;
73428;SDS011;61643;49.564;17.412;2023-06-14T10:01:02;7.20;;;3.75;;
73428;SDS011;61643;49.564;17.412;2023-06-14T10:03:32;5.22;;;3.28;;
73428;SDS011;61643;49.564;17.412;2023-06-14T10:06:00;5.10;;;3.70;;
73428;SDS011;61643;49.564;17.412;2023-06-14T10:08:29;5.20;;;3.65;;
73428;SDS011;61643;49.564;17.412;2023-06-14T10:10:58;8.38;;;3.92;;
73428;SDS011;61643;49.564;17.412;2023-06-14T10:13:25;6.57;;;4.40;;
73428;SDS011;61643;49.564;17.412;2023-06-14T10:15:57;5.25;;;2.95;;
73428;SDS011;61643;49.564;17.412;2023-06-14T10:18:33;7.13;;;3.15;;
73428;SDS011;61643;49.564;17.412;2023-06-14T10:23:47;4.97;;;3.40;;
73428;SDS011;61643;49.564;17.412;2023-06-14T10:26:19;5.28;;;3.30;;
73428;SDS011;61643;49.564;17.412;2023-06-14T10:28:56;4.03;;;3.08;;
73428;SDS011;61643;49.564;17.412;2023-06-14T10:31:39;5.07;;;4.00;;
73428;SDS011;61643;49.564;17.412;2023-06-14T10:34:06;4.90;;;3.83;;
73428;SDS011;61643;49.564;17.412;2023-06-14T10:36:32;5.20;;;4.00;;
73428;SDS011;61643;49.564;17.412;2023-06-14T10:39:05;5.20;;;4.10;;
73428;SDS011;61643;49.564;17.412;2023-06-14T10:41:40;5.35;;;3.78;;
73428;SDS011;61643;49.564;17.412;2023-06-14T10:46:38;4.65;;;3.67;;
73428;SDS011;61643;49.564;17.412;2023-06-14T10:49:39;5.25;;;3.65;;
73428;SDS011;61643;49.564;17.412;2023-06-14T10:52:14;4.47;;;3.42;;
73428;SDS011;61643;49.564;17.412;2023-06-14T10:57:35;6.30;;;4.15;;
73428;SDS011;61643;49.564;17.412;2023-06-14T11:00:03;5.25;;;3.80;;
73428;SDS011;61643;49.564;17.412;2023-06-14T11:02:58;6.75;;;4.10;;
73428;SDS011;61643;49.564;17.412;2023-06-14T11:11:13;5.65;;;4.07;;
73428;SDS011;61643;49.564;17.412;2023-06-14T11:13:41;5.40;;;3.83;;
73428;SDS011;61643;49.564;17.412;2023-06-14T11:16:12;4.65;;;3.63;;
73428;SDS011;61643;49.564;17.412;2023-06-14T11:18:40;7.53;;;4.50;;
73428;SDS011;61643;49.564;17.412;2023-06-14T11:21:07;6.18;;;4.15;;
73428;SDS011;61643;49.564;17.412;2023-06-14T11:23:34;6.53;;;4.65;;
73428;SDS011;61643;49.564;17.412;2023-06-14T11:26:01;5.35;;;4.13;;
73428;SDS011;61643;49.564;17.412;2023-06-14T11:28:37;5.40;;;4.15;;
73428;SDS011;61643;49.564;17.412;2023-06-14T11:31:09;5.80;;;4.15;;
73428;SDS011;61643;49.564;17.412;2023-06-14T11:33:35;6.00;;;4.20;;
73428;SDS011;61643;49.564;17.412;2023-06-14T11:36:01;5.82;;;4.53;;
73428;SDS011;61643;49.564;17.412;2023-06-14T11:38:30;7.78;;;4.32;;
73428;SDS011;61643;49.564;17.412;2023-06-14T11:40:59;5.50;;;4.35;;
73428;SDS011;61643;49.564;17.412;2023-06-14T11:43:26;6.82;;;4.40;;
73428;SDS011;61643;49.564;17.412;2023-06-14T11:45:52;4.80;;;3.95;;
73428;SDS011;61643;49.564;17.412;2023-06-14T11:48:18;5.75;;;4.10;;
73428;SDS011;61643;49.564;17.412;2023-06-14T11:50:49;7.20;;;3.78;;
73428;SDS011;61643;49.564;17.412;2023-06-14T11:53:15;4.45;;;3.38;;
73428;SDS011;61643;49.564;17.412;2023-06-14T11:55:42;5.53;;;4.18;;
73428;SDS011;61643;49.564;17.412;2023-06-14T11:58:10;5.97;;;3.83;;
73428;SDS011;61643;49.564;17.412;2023-06-14T12:00:37;5.10;;;3.70;;
73428;SDS011;61643;49.564;17.412;2023-06-14T12:03:03;4.75;;;3.45;;
73428;SDS011;61643;49.564;17.412;2023-06-14T12:05:29;5.60;;;3.65;;
73428;SDS011;61643;49.564;17.412;2023-06-14T12:08:02;4.65;;;3.72;;
73428;SDS011;61643;49.564;17.412;2023-06-14T12:10:29;4.80;;;3.90;;
73428;SDS011;61643;49.564;17.412;2023-06-14T12:12:58;5.47;;;3.70;;
73428;SDS011;61643;49.564;17.412;2023-06-14T12:15:27;5.15;;;3.65;;
73428;SDS011;61643;49.564;17.412;2023-06-14T12:17:57;4.93;;;3.25;;
73428;SDS011;61643;49.564;17.412;2023-06-14T12:20:28;5.32;;;3.40;;
73428;SDS011;61643;49.564;17.412;2023-06-14T12:22:55;5.78;;;3.45;;
73428;SDS011;61643;49.564;17.412;2023-06-14T12:25:23;4.47;;;3.20;;
73428;SDS011;61643;49.564;17.412;2023-06-14T12:28:03;4.88;;;3.38;;
73428;SDS011;61643;49.564;17.412;2023-06-14T12:30:31;8.90;;;3.90;;
73428;SDS011;61643;49.564;17.412;2023-06-14T12:32:58;5.68;;;3.28;;
73428;SDS011;61643;49.564;17.412;2023-06-14T12:35:25;5.35;;;3.03;;
73428;SDS011;61643;49.564;17.412;2023-06-14T12:37:51;5.78;;;3.03;;
73428;SDS011;61643;49.564;17.412;2023-06-14T12:40:18;3.65;;;2.90;;
73428;SDS011;61643;49.564;17.412;2023-06-14T12:42:44;4.28;;;2.58;;
73428;SDS011;61643;49.564;17.412;2023-06-14T12:45:12;4.03;;;2.90;;
73428;SDS011;61643;49.564;17.412;2023-06-14T12:47:39;4.55;;;2.97;;
73428;SDS011;61643;49.564;17.412;2023-06-14T12:50:05;4.28;;;3.17;;
73428;SDS011;61643;49.564;17.412;2023-06-14T12:52:32;4.05;;;3.17;;
73428;SDS011;61643;49.564;17.412;2023-06-14T12:55:04;4.32;;;3.10;;
73428;SDS011;61643;49.564;17.412;2023-06-14T12:57:31;4.25;;;3.03;;
73428;SDS011;61643;49.564;17.412;2023-06-14T12:59:57;4.72;;;2.92;;
73428;SDS011;61643;49.564;17.412;2023-06-14T13:02:25;4.13;;;2.83;;
73428;SDS011;61643;49.564;17.412;2023-06-14T13:04:51;3.58;;;2.90;;
73428;SDS011;61643;49.564;17.412;2023-06-14T13:07:17;3.80;;;3.00;;
73428;SDS011;61643;49.564;17.412;2023-06-14T13:09:43;4.05;;;2.83;;
73428;SDS011;61643;49.564;17.412;2023-06-14T13:12:10;3.53;;;2.70;;
73428;SDS011;61643;49.564;17.412;2023-06-14T13:14:37;3.92;;;2.63;;
73428;SDS011;61643;49.564;17.412;2023-06-14T13:17:04;4.15;;;3.03;;
73428;SDS011;61643;49.564;17.412;2023-06-14T13:19:31;3.40;;;2.88;;
73428;SDS011;61643;49.564;17.412;2023-06-14T13:21:57;4.18;;;3.20;;
73428;SDS011;61643;49.564;17.412;2023-06-14T13:24:23;3.75;;;2.88;;
73428;SDS011;61643;49.564;17.412;2023-06-14T13:26:49;4.15;;;2.83;;
73428;SDS011;61643;49.564;17.412;2023-06-14T13:29:15;5.90;;;2.97;;
73428;SDS011;61643;49.564;17.412;2023-06-14T13:31:41;3.55;;;2.50;;
73428;SDS011;61643;49.564;17.412;2023-06-14T13:34:07;4.22;;;2.95;;
73428;SDS011;61643;49.564;17.412;2023-06-14T13:36:33;5.05;;;3.13;;
73428;SDS011;61643;49.564;17.412;2023-06-14T13:38:59;4.15;;;2.78;;
73428;SDS011;61643;49.564;17.412;2023-06-14T13:41:25;4.95;;;3.50;;
73428;SDS011;61643;49.564;17.412;2023-06-14T13:43:57;4.25;;;3.53;;
73428;SDS011;61643;49.564;17.412;2023-06-14T13:46:24;5.47;;;3.17;;
73428;SDS011;61643;49.564;17.412;2023-06-14T13:48:50;4.93;;;3.25;;
73428;SDS011;61643;49.564;17.412;2023-06-14T13:51:16;8.75;;;3.40;;
73428;SDS011;61643;49.564;17.412;2023-06-14T13:53:50;5.13;;;2.83;;
73428;SDS011;61643;49.564;17.412;2023-06-14T13:56:17;4.30;;;3.03;;
73428;SDS011;61643;49.564;17.412;2023-06-14T13:58:44;4.40;;;3.42;;
73428;SDS011;61643;49.564;17.412;2023-06-14T14:01:10;4.45;;;2.97;;
73428;SDS011;61643;49.564;17.412;2023-06-14T14:03:37;6.68;;;2.95;;
73428;SDS011;61643;49.564;17.412;2023-06-14T14:06:03;6.07;;;3.10;;
73428;SDS011;61643;49.564;17.412;2023-06-14T14:08:30;3.53;;;2.70;;
73428;SDS011;61643;49.564;17.412;2023-06-14T14:10:56;6.50;;;2.80;;
73428;SDS011;61643;49.564;17.412;2023-06-14T14:13:22;5.45;;;2.80;;
73428;SDS011;61643;49.564;17.412;2023-06-14T14:15:48;4.13;;;2.83;;
73428;SDS011;61643;49.564;17.412;2023-06-14T14:18:14;3.47;;;2.60;;
73428;SDS011;61643;49.564;17.412;2023-06-14T14:20:41;5.32;;;2.72;;
73428;SDS011;61643;49.564;17.412;2023-06-14T14:23:06;3.58;;;2.90;;
73428;SDS011;61643;49.564;17.412;2023-06-14T14:25:32;3.63;;;2.72;;
73428;SDS011;61643;49.564;17.412;2023-06-14T14:27:58;3.05;;;2.75;;
73428;SDS011;61643;49.564;17.412;2023-06-14T14:30:25;4.97;;;3.22;;
73428;SDS011;61643;49.564;17.412;2023-06-14T14:32:51;4.45;;;2.97;;
73428;SDS011;61643;49.564;17.412;2023-06-14T14:35:18;4.43;;;2.92;;
73428;SDS011;61643;49.564;17.412;2023-06-14T14:37:44;2.90;;;2.50;;
73428;SDS011;61643;49.564;17.412;2023-06-14T14:40:11;4.35;;;3.03;;
73428;SDS011;61643;49.564;17.412;2023-06-14T14:42:37;4.18;;;3.10;;
73428;SDS011;61643;49.564;17.412;2023-06-14T14:45:03;4.65;;;3.30;;
73428;SDS011;61643;49.564;17.412;2023-06-14T14:47:30;4.03;;;2.83;;
73428;SDS011;61643;49.564;17.412;2023-06-14T14:49:56;5.60;;;3.13;;
73428;SDS011;61643;49.564;17.412;2023-06-14T14:52:22;4.55;;;3.22;;
73428;SDS011;61643;49.564;17.412;2023-06-14T14:54:47;5.25;;;2.92;;
73428;SDS011;61643;49.564;17.412;2023-06-14T14:57:13;5.32;;;2.70;;
73428;SDS011;61643;49.564;17.412;2023-06-14T14:59:39;4.25;;;2.72;;
73428;SDS011;61643;49.564;17.412;2023-06-14T15:02:05;3.90;;;2.88;;